La Plata, New Mexico
Current Conditions -  °F | °C
As of 3:53 PM on Wednesday 26 Nov 2014 (Local Time) from KFMN Reporting Station
Clear Clear  
Wind Chill: 55°   Ceiling: Unl
Heat Index: 55°   Visibility: 10mi
Dew Point: 22°   Wind: 17mph
Humidity: 28%   Direction: 280°W
Pressure: 30.32"   Gusts: NA
Location:  36.93°N, 108.19°W
Report Text: KFMN 262253Z 28015KT 10SM CLR 13/M06 A3032 RMK AO2 SLP265 T01281056
Loading
Personal Weather Stations






























Interactive Weather Map New forecast layout! Learn more

10-Day Weather Forecast

Advertisements
Track Severe Weather on mobile